Time;durP1;ratioP1;P1;durP2;ratioP2;P2;SDS_P1;SDS_P2;PMS_P1;PMS_P2;Temp;Humidity;BMP_temperature;BMP_pressure;BME280_temperature;BME280_humidity;BME280_pressure;Samples;Min_cycle;Max_cycle;Signal;HPM_P1;HPM_P2
2024/03/02 00:02:15;;;;;;;24.50;22.10;;;6.50;99.90;;;;;;4840634;29;20676;-76
2024/03/02 00:04:45;;;;;;;21.67;19.87;;;6.60;99.90;;;;;;4841205;29;20597;-76
2024/03/02 00:07:15;;;;;;;21.40;19.60;;;6.50;99.90;;;;;;4841206;29;20211;-77
2024/03/02 00:09:42;;;;;;;20.83;19.03;;;6.50;99.90;;;;;;4841355;29;20692;-76
2024/03/02 00:12:12;;;;;;;20.90;19.10;;;6.50;99.90;;;;;;4840888;29;20751;-76
2024/03/02 00:14:39;;;;;;;23.10;21.00;;;6.40;99.90;;;;;;4841431;29;20618;-76
2024/03/02 00:17:08;;;;;;;23.07;20.90;;;6.40;99.90;;;;;;4841943;29;20743;-76
2024/03/02 00:19:34;;;;;;;24.30;21.97;;;6.40;99.90;;;;;;4841565;29;20210;-75
2024/03/02 00:22:04;;;;;;;22.67;20.63;;;6.40;99.90;;;;;;4841414;29;20235;-76
2024/03/02 00:24:34;;;;;;;22.90;20.80;;;6.40;99.90;;;;;;4839934;29;20232;-76
2024/03/02 00:27:02;;;;;;;23.67;21.50;;;6.40;99.90;;;;;;4840314;29;20269;-76
2024/03/02 00:29:30;;;;;;;23.83;21.67;;;6.40;99.90;;;;;;4839988;29;20680;-76
2024/03/02 00:31:58;;;;;;;23.57;21.47;;;6.40;99.90;;;;;;4839954;29;20205;-76
2024/03/02 00:34:25;;;;;;;22.87;20.87;;;6.40;99.90;;;;;;4841016;29;20229;-76
2024/03/02 00:36:51;;;;;;;24.57;22.30;;;6.30;99.90;;;;;;4840029;29;20252;-76
2024/03/02 00:39:20;;;;;;;22.40;20.50;;;6.30;99.90;;;;;;4841500;29;20622;-77
2024/03/02 00:41:47;;;;;;;22.87;20.93;;;6.30;99.90;;;;;;4839775;29;20285;-76
2024/03/02 00:44:16;;;;;;;22.03;19.93;;;6.20;99.90;;;;;;4839953;29;20615;-76
2024/03/02 00:46:44;;;;;;;23.00;20.90;;;6.20;99.90;;;;;;4841564;29;20585;-76
2024/03/02 00:49:22;;;;;;;23.97;21.77;;;6.20;99.90;;;;;;4839957;29;20204;-76
2024/03/02 00:51:50;;;;;;;21.33;19.50;;;6.10;99.90;;;;;;4841300;29;20313;-77
2024/03/02 00:54:23;;;;;;;21.87;19.97;;;6.20;99.90;;;;;;4841001;29;20302;-76
2024/03/02 00:56:51;;;;;;;22.57;20.53;;;6.10;99.90;;;;;;4839649;29;20301;-77
2024/03/02 00:59:17;;;;;;;23.57;21.33;;;6.10;99.90;;;;;;4841194;29;20220;-76
2024/03/02 01:01:44;;;;;;;22.17;20.27;;;6.00;99.90;;;;;;4840992;29;20209;-76
2024/03/02 01:04:14;;;;;;;21.87;19.70;;;6.00;99.90;;;;;;4840834;29;20274;-76
2024/03/02 01:06:40;;;;;;;22.47;20.23;;;5.90;99.90;;;;;;4841068;29;20262;-75
2024/03/02 01:09:07;;;;;;;22.90;20.70;;;5.90;99.90;;;;;;4839730;29;20248;-76
2024/03/02 01:11:35;;;;;;;22.83;20.73;;;5.90;99.90;;;;;;4839772;29;20216;-76
2024/03/02 01:14:02;;;;;;;22.53;20.40;;;5.80;99.90;;;;;;4841235;29;20225;-76
2024/03/02 01:16:29;;;;;;;22.53;20.50;;;5.80;99.90;;;;;;4839612;29;20258;-76
2024/03/02 01:18:55;;;;;;;23.23;21.03;;;5.80;99.90;;;;;;4841420;29;20293;-76
2024/03/02 01:21:22;;;;;;;22.77;20.87;;;5.80;99.90;;;;;;4858092;29;20554;-77
2024/03/02 01:23:49;;;;;;;23.73;21.57;;;5.70;99.90;;;;;;4844415;29;20277;-76
2024/03/02 01:26:16;;;;;;;24.80;22.50;;;5.70;99.90;;;;;;4844043;29;20200;-76
2024/03/02 01:28:44;;;;;;;24.17;21.87;;;5.70;99.90;;;;;;4844543;29;20213;-76
2024/03/02 01:31:11;;;;;;;23.17;20.97;;;5.70;99.90;;;;;;4843965;29;20225;-76
2024/03/02 01:33:37;;;;;;;23.37;21.37;;;5.70;99.90;;;;;;4842926;29;20261;-76
2024/03/02 01:36:05;;;;;;;22.03;20.13;;;5.60;99.90;;;;;;4844010;29;20225;-76
2024/03/02 01:38:32;;;;;;;23.17;21.27;;;5.60;99.90;;;;;;4844070;29;20231;-76
2024/03/02 01:40:59;;;;;;;25.00;22.70;;;5.50;99.90;;;;;;4842887;29;20296;-76
2024/03/02 01:43:26;;;;;;;23.93;21.70;;;5.60;99.90;;;;;;4844152;29;20208;-77
2024/03/02 01:45:54;;;;;;;25.73;23.07;;;5.50;99.90;;;;;;4843984;29;20208;-76
2024/03/02 01:48:21;;;;;;;24.77;22.30;;;5.40;99.90;;;;;;4842445;29;20294;-76
2024/03/02 01:50:47;;;;;;;23.83;21.70;;;5.40;99.90;;;;;;4842250;29;20203;-76
2024/03/02 01:53:14;;;;;;;24.20;21.83;;;5.30;99.90;;;;;;4843956;29;20256;-77
2024/03/02 01:55:41;;;;;;;24.27;21.83;;;5.30;99.90;;;;;;4843568;29;20271;-76
2024/03/02 01:58:08;;;;;;;24.50;22.27;;;5.20;99.90;;;;;;4843612;29;20204;-77
2024/03/02 02:00:35;;;;;;;24.13;21.83;;;5.10;99.90;;;;;;4842539;29;20612;-76
2024/03/02 02:03:04;;;;;;;24.57;22.17;;;5.10;99.90;;;;;;4842756;29;20208;-77
2024/03/02 02:05:31;;;;;;;22.87;20.70;;;5.10;99.90;;;;;;4842316;29;20230;-76
2024/03/02 02:07:58;;;;;;;22.70;20.70;;;5.00;99.90;;;;;;4843831;29;20284;-77
2024/03/02 02:10:25;;;;;;;23.87;21.37;;;4.90;99.90;;;;;;4843975;29;20673;-75
2024/03/02 02:12:52;;;;;;;23.27;21.17;;;4.90;99.90;;;;;;4841968;29;20219;-75
2024/03/02 02:15:25;;;;;;;23.23;20.93;;;4.90;99.90;;;;;;4844045;29;20222;-77
2024/03/02 02:17:52;;;;;;;24.23;22.03;;;4.80;99.90;;;;;;4843101;29;20203;-76
2024/03/02 02:20:20;;;;;;;22.30;20.40;;;4.80;99.90;;;;;;4842228;29;20196;-75
2024/03/02 02:22:57;;;;;;;22.53;20.63;;;4.70;99.90;;;;;;4842196;29;20210;-76
2024/03/02 02:25:24;;;;;;;22.40;20.47;;;4.70;99.90;;;;;;4843217;29;20271;-76
2024/03/02 02:27:50;;;;;;;23.60;21.50;;;4.60;99.90;;;;;;4842128;29;20355;-77
2024/03/02 02:30:20;;;;;;;24.30;21.90;;;4.60;99.90;;;;;;4842175;29;20249;-76
2024/03/02 02:32:47;;;;;;;23.17;21.07;;;4.60;99.90;;;;;;4842124;29;20298;-76
2024/03/02 02:35:14;;;;;;;23.27;21.10;;;4.60;99.90;;;;;;4843168;29;20211;-76
2024/03/02 02:37:41;;;;;;;23.23;21.07;;;4.40;99.90;;;;;;4842124;29;20214;-76
2024/03/02 02:40:09;;;;;;;22.47;20.57;;;4.40;99.90;;;;;;4843171;29;20298;-76
2024/03/02 02:42:36;;;;;;;23.13;20.93;;;4.30;99.90;;;;;;4842742;29;20690;-77
2024/03/02 02:45:03;;;;;;;21.97;19.97;;;4.30;99.90;;;;;;4841772;29;20374;-76
2024/03/02 02:47:30;;;;;;;21.97;19.97;;;4.30;99.90;;;;;;4842133;29;20236;-76
2024/03/02 02:49:57;;;;;;;22.87;20.73;;;4.20;99.90;;;;;;4841561;29;20222;-76
2024/03/02 02:52:24;;;;;;;23.50;21.17;;;4.10;99.90;;;;;;4842064;29;20748;-77
2024/03/02 02:54:51;;;;;;;21.50;19.50;;;4.00;99.90;;;;;;4841648;29;20242;-76
2024/03/02 02:57:19;;;;;;;21.40;19.50;;;4.00;99.90;;;;;;4842918;29;20203;-76
2024/03/02 02:59:46;;;;;;;20.73;18.93;;;4.00;99.90;;;;;;4841812;29;20581;-76
2024/03/02 03:02:12;;;;;;;21.07;19.17;;;3.90;99.90;;;;;;4843032;29;20206;-75
2024/03/02 03:04:41;;;;;;;21.33;19.63;;;3.80;99.90;;;;;;4842895;29;20218;-76
2024/03/02 03:07:07;;;;;;;22.40;20.23;;;3.70;99.90;;;;;;4841415;29;20203;-76
2024/03/02 03:09:38;;;;;;;22.20;20.30;;;3.70;99.90;;;;;;4841431;29;20650;-76
2024/03/02 03:12:05;;;;;;;21.43;19.63;;;3.70;99.90;;;;;;4841923;29;20710;-77
2024/03/02 03:14:33;;;;;;;22.57;20.57;;;3.60;99.90;;;;;;4841020;29;20253;-77
2024/03/02 03:17:01;;;;;;;22.40;20.50;;;3.60;99.90;;;;;;4841126;29;20742;-76
2024/03/02 03:19:27;;;;;;;23.03;21.03;;;3.60;99.90;;;;;;4841745;29;20199;-75
2024/03/02 03:21:54;;;;;;;21.73;19.83;;;3.70;99.90;;;;;;4840474;29;20636;-76
2024/03/02 03:24:21;;;;;;;22.80;20.73;;;3.60;99.90;;;;;;4842364;29;20225;-76
2024/03/02 03:26:48;;;;;;;22.80;20.67;;;3.50;99.90;;;;;;4842201;29;20686;-76
2024/03/02 03:29:14;;;;;;;22.40;20.40;;;3.40;99.90;;;;;;4842408;29;20206;-76
2024/03/02 03:31:42;;;;;;;21.97;20.17;;;3.40;99.90;;;;;;4842383;29;20697;-76
2024/03/02 03:34:09;;;;;;;21.70;19.90;;;3.40;99.90;;;;;;4840780;29;20233;-76
2024/03/02 03:36:37;;;;;;;23.97;21.97;;;3.30;99.90;;;;;;4842383;29;20277;-76
2024/03/02 03:39:06;;;;;;;23.13;21.13;;;3.30;99.90;;;;;;4841101;29;20258;-76
2024/03/02 03:41:32;;;;;;;23.60;21.50;;;3.30;99.90;;;;;;4841975;29;20286;-76
2024/03/02 03:43:59;;;;;;;22.63;20.73;;;3.20;99.90;;;;;;4840102;29;20227;-76
2024/03/02 03:46:26;;;;;;;23.73;21.73;;;3.30;99.90;;;;;;4841275;29;20217;-76
2024/03/02 03:48:55;;;;;;;23.40;21.30;;;3.30;99.90;;;;;;4842058;29;20329;-76
2024/03/02 03:51:22;;;;;;;22.57;20.60;;;3.20;99.90;;;;;;4841617;29;20555;-76
2024/03/02 03:53:50;;;;;;;22.03;20.13;;;3.20;99.90;;;;;;4841454;29;20317;-76
2024/03/02 03:56:17;;;;;;;24.33;21.73;;;3.20;99.90;;;;;;4841789;29;20694;-76
2024/03/02 03:58:43;;;;;;;22.10;20.10;;;3.20;99.90;;;;;;4840481;29;20218;-76
2024/03/02 04:01:10;;;;;;;23.07;20.97;;;3.20;99.90;;;;;;4841423;29;20259;-77
2024/03/02 04:03:37;;;;;;;22.40;20.37;;;3.20;99.90;;;;;;4840649;29;20211;-77
2024/03/02 04:06:05;;;;;;;23.07;21.07;;;3.20;99.90;;;;;;4841609;29;20229;-76
2024/03/02 04:08:32;;;;;;;22.70;20.70;;;3.20;99.90;;;;;;4841906;29;20682;-77
2024/03/02 04:10:59;;;;;;;22.50;20.47;;;3.20;99.90;;;;;;4841305;29;20628;-77
2024/03/02 04:13:26;;;;;;;21.97;20.03;;;3.10;99.90;;;;;;4841368;29;20255;-76
2024/03/02 04:15:53;;;;;;;20.17;18.47;;;3.10;99.90;;;;;;4835362;29;20306;-77
2024/03/02 04:18:20;;;;;;;21.67;19.60;;;3.10;99.90;;;;;;4839017;29;20202;-77
2024/03/02 04:20:47;;;;;;;21.07;19.27;;;3.10;99.90;;;;;;4835506;29;20702;-77
2024/03/02 04:23:15;;;;;;;21.57;19.70;;;3.10;99.90;;;;;;4840849;29;20233;-78
2024/03/02 04:25:42;;;;;;;21.57;19.67;;;3.10;99.90;;;;;;4840779;29;20710;-77
2024/03/02 04:28:08;;;;;;;21.23;19.53;;;3.10;99.90;;;;;;4839550;29;20686;-77
2024/03/02 04:30:35;;;;;;;21.20;19.40;;;3.10;99.90;;;;;;4839684;29;20285;-77
2024/03/02 04:33:03;;;;;;;22.20;20.23;;;3.10;99.90;;;;;;4839551;29;20283;-77
2024/03/02 04:35:30;;;;;;;21.17;19.37;;;3.10;99.90;;;;;;4839410;29;20223;-77
2024/03/02 04:37:57;;;;;;;20.20;18.60;;;3.10;99.90;;;;;;4839280;29;20210;-77
2024/03/02 04:40:25;;;;;;;21.13;19.33;;;3.10;99.90;;;;;;4840793;29;20199;-77
2024/03/02 04:42:52;;;;;;;21.83;19.87;;;3.00;99.90;;;;;;4839314;29;20266;-77
2024/03/02 04:45:18;;;;;;;22.90;20.90;;;3.00;99.90;;;;;;4840812;29;20283;-77
2024/03/02 04:47:45;;;;;;;21.00;19.23;;;3.00;99.90;;;;;;4841137;29;20231;-77
2024/03/02 04:50:12;;;;;;;22.43;20.30;;;3.00;99.90;;;;;;4840748;29;20259;-77
2024/03/02 04:52:39;;;;;;;22.37;20.57;;;3.00;99.90;;;;;;4834570;29;20202;-77
2024/03/02 04:55:29;;;;;;;22.50;20.50;;;2.90;99.90;;;;;;4842712;29;20227;-78
2024/03/02 04:57:57;;;;;;;21.87;20.03;;;2.90;99.90;;;;;;4843660;29;20221;-79
2024/03/02 05:00:24;;;;;;;23.00;21.13;;;2.90;99.90;;;;;;4843116;29;20738;-78
2024/03/02 05:02:51;;;;;;;21.70;19.70;;;2.90;99.90;;;;;;4840422;29;20297;-77
2024/03/02 05:05:17;;;;;;;22.50;20.50;;;2.90;99.90;;;;;;4841157;29;20314;-78
2024/03/02 05:07:44;;;;;;;22.90;20.83;;;2.90;99.90;;;;;;4846609;29;20211;-78
2024/03/02 05:10:11;;;;;;;22.17;20.27;;;2.90;99.90;;;;;;4846052;29;20198;-77
2024/03/02 05:12:58;;;;;;;20.67;19.03;;;2.90;99.90;;;;;;4853490;29;20305;-78
2024/03/02 05:15:27;;;;;;;21.40;19.50;;;2.90;99.90;;;;;;4842821;29;20270;-78
2024/03/02 05:17:54;;;;;;;22.57;20.57;;;2.90;99.90;;;;;;4844251;29;20210;-77
2024/03/02 05:20:20;;;;;;;22.73;20.73;;;2.90;99.90;;;;;;4843996;29;20205;-77
2024/03/02 05:22:47;;;;;;;23.17;21.17;;;2.90;99.90;;;;;;4842753;29;20207;-76
2024/03/02 05:25:13;;;;;;;22.80;20.83;;;2.90;99.90;;;;;;4843840;29;20263;-76
2024/03/02 05:27:40;;;;;;;22.97;20.87;;;2.90;99.90;;;;;;4845742;29;20203;-76
2024/03/02 05:30:09;;;;;;;23.80;21.60;;;2.80;99.90;;;;;;4839919;29;20271;-76
2024/03/02 05:32:37;;;;;;;22.10;20.30;;;2.90;99.90;;;;;;4839336;29;20234;-78
2024/03/02 05:35:05;;;;;;;22.83;21.03;;;2.80;99.90;;;;;;4842808;29;20322;-76
2024/03/02 05:37:32;;;;;;;23.13;21.03;;;2.80;99.90;;;;;;4841136;29;20309;-76
2024/03/02 05:39:59;;;;;;;23.00;21.00;;;2.80;99.90;;;;;;4844857;29;20226;-77
2024/03/02 05:42:26;;;;;;;23.37;21.43;;;2.90;99.90;;;;;;4845813;29;20234;-77
2024/03/02 05:44:56;;;;;;;22.60;20.70;;;2.80;99.90;;;;;;4844523;29;20721;-80
2024/03/02 05:47:23;;;;;;;23.83;21.67;;;2.80;99.90;;;;;;4847369;29;20199;-78
2024/03/02 05:49:51;;;;;;;24.60;22.37;;;2.80;99.90;;;;;;4844711;29;20223;-79
2024/03/02 05:52:18;;;;;;;24.87;22.67;;;2.80;99.90;;;;;;4847337;29;20676;-78
2024/03/02 05:54:45;;;;;;;25.13;22.83;;;2.70;99.90;;;;;;4847189;29;20536;-77
2024/03/02 05:57:31;;;;;;;25.30;23.07;;;2.70;99.90;;;;;;4855378;29;20226;-76
2024/03/02 05:59:58;;;;;;;22.73;20.77;;;2.70;99.90;;;;;;4844231;29;20204;-77
2024/03/02 06:02:25;;;;;;;22.67;20.77;;;2.70;99.90;;;;;;4844308;29;20207;-76
2024/03/02 06:04:55;;;;;;;21.97;20.10;;;2.70;99.90;;;;;;4841132;29;20305;-79
2024/03/02 06:07:21;;;;;;;23.90;21.80;;;2.70;99.90;;;;;;4836584;29;20206;-79
2024/03/02 06:09:50;;;;;;;21.93;20.00;;;2.70;99.90;;;;;;4834029;29;20227;-78
2024/03/02 06:12:17;;;;;;;21.80;19.73;;;2.70;99.90;;;;;;4843590;29;20567;-76
2024/03/02 06:14:44;;;;;;;23.07;21.07;;;2.70;99.90;;;;;;4842858;29;20714;-76
2024/03/02 06:17:11;;;;;;;22.90;20.90;;;2.80;99.90;;;;;;4840777;29;20222;-77
2024/03/02 06:19:38;;;;;;;23.70;21.67;;;2.80;99.90;;;;;;4843177;29;20210;-76
2024/03/02 06:22:09;;;;;;;22.80;20.77;;;2.90;99.90;;;;;;4843286;29;20706;-76
2024/03/02 06:24:37;;;;;;;24.30;22.20;;;2.90;99.90;;;;;;4842462;29;20231;-76
2024/03/02 06:27:04;;;;;;;23.30;21.20;;;2.90;99.90;;;;;;4842787;29;20649;-77
2024/03/02 06:29:33;;;;;;;24.33;22.13;;;3.00;99.90;;;;;;4844007;29;20211;-77
2024/03/02 06:31:59;;;;;;;24.43;22.03;;;3.00;99.90;;;;;;4843935;29;20231;-76
2024/03/02 06:34:26;;;;;;;22.77;20.77;;;3.20;99.90;;;;;;4844258;29;20222;-77
2024/03/02 06:36:53;;;;;;;23.77;21.70;;;3.30;99.90;;;;;;4844086;29;20226;-75
2024/03/02 06:39:21;;;;;;;24.50;22.30;;;3.40;99.90;;;;;;4842886;29;20259;-76
2024/03/02 06:41:48;;;;;;;22.90;21.00;;;3.50;99.90;;;;;;4844143;29;20677;-76
2024/03/02 06:44:15;;;;;;;22.40;20.60;;;3.60;99.90;;;;;;4843022;29;20745;-76
2024/03/02 06:46:41;;;;;;;22.37;20.50;;;3.60;99.90;;;;;;4843292;29;20263;-76
2024/03/02 06:49:10;;;;;;;22.60;20.70;;;3.70;99.90;;;;;;4842491;29;20309;-76
2024/03/02 06:51:37;;;;;;;20.67;19.07;;;3.60;99.90;;;;;;4842764;29;20284;-76
2024/03/02 06:54:04;;;;;;;21.03;19.20;;;3.60;99.90;;;;;;4843569;29;20235;-76
2024/03/02 06:56:32;;;;;;;21.07;19.37;;;3.60;99.90;;;;;;4844256;29;20218;-76
2024/03/02 06:58:59;;;;;;;21.30;19.50;;;3.70;99.90;;;;;;4843739;29;20198;-76
2024/03/02 07:01:27;;;;;;;20.57;18.97;;;3.80;99.90;;;;;;4843804;29;20195;-76
2024/03/02 07:03:54;;;;;;;21.40;19.73;;;3.80;99.90;;;;;;4843964;29;20610;-77
2024/03/02 07:06:21;;;;;;;21.50;19.70;;;4.00;99.90;;;;;;4843610;29;20209;-76
2024/03/02 07:08:48;;;;;;;22.27;20.37;;;4.20;99.90;;;;;;4842258;29;20351;-77
2024/03/02 07:11:15;;;;;;;22.40;20.60;;;4.30;99.90;;;;;;4843547;29;20579;-76
2024/03/02 07:13:43;;;;;;;22.10;20.17;;;4.50;99.90;;;;;;4843772;29;20224;-76
2024/03/02 07:16:29;;;;;;;22.10;20.40;;;4.70;99.90;;;;;;4844052;29;20254;-76
2024/03/02 07:18:56;;;;;;;21.17;19.47;;;5.10;99.90;;;;;;4840122;29;20293;-77
2024/03/02 07:21:29;;;;;;;21.90;20.07;;;5.50;99.90;;;;;;4843607;29;20635;-79
2024/03/02 07:23:56;;;;;;;18.37;16.80;;;6.00;99.90;;;;;;4843720;29;20231;-78
2024/03/02 07:26:23;;;;;;;18.20;16.63;;;6.40;99.90;;;;;;4843567;29;20205;-76
2024/03/02 07:28:51;;;;;;;16.90;15.50;;;6.60;99.90;;;;;;4844854;29;20200;-77
2024/03/02 07:31:18;;;;;;;17.13;15.67;;;6.80;99.90;;;;;;4844721;29;20270;-77
2024/03/02 07:33:46;;;;;;;17.20;15.70;;;6.80;99.90;;;;;;4844281;29;20282;-77
2024/03/02 07:36:13;;;;;;;17.10;15.70;;;6.80;99.90;;;;;;4844179;29;20247;-76
2024/03/02 07:38:40;;;;;;;16.27;14.90;;;6.70;99.90;;;;;;4843979;29;20217;-77
2024/03/02 07:41:08;;;;;;;17.23;15.90;;;6.70;99.90;;;;;;4844133;29;20210;-77
2024/03/02 07:43:35;;;;;;;18.77;17.27;;;6.60;99.90;;;;;;4843915;29;20218;-76
2024/03/02 07:46:03;;;;;;;19.13;17.73;;;6.50;99.90;;;;;;4842000;29;20225;-78
2024/03/02 07:48:30;;;;;;;19.27;17.77;;;6.50;99.90;;;;;;4837349;29;20203;-78
2024/03/02 07:50:57;;;;;;;19.70;18.10;;;6.50;99.90;;;;;;4837324;29;20207;-78
2024/03/02 07:53:24;;;;;;;18.83;17.43;;;6.60;99.90;;;;;;4840053;29;20288;-79
2024/03/02 07:55:51;;;;;;;19.13;17.63;;;6.60;99.90;;;;;;4844256;29;20201;-78
2024/03/02 07:58:19;;;;;;;18.70;17.30;;;6.70;99.90;;;;;;4845981;29;20206;-78
2024/03/02 08:00:46;;;;;;;17.97;16.67;;;6.60;99.90;;;;;;4843643;29;20680;-78
2024/03/02 08:03:14;;;;;;;18.53;17.10;;;6.60;99.90;;;;;;4840452;29;20234;-77
2024/03/02 08:05:41;;;;;;;17.90;16.60;;;6.60;99.90;;;;;;4841915;29;20727;-77
2024/03/02 08:08:08;;;;;;;18.67;17.27;;;6.60;99.90;;;;;;4840542;29;20247;-78
2024/03/02 08:10:35;;;;;;;18.57;17.17;;;6.60;99.90;;;;;;4839955;29;20273;-77
2024/03/02 08:13:02;;;;;;;18.30;16.97;;;6.70;99.90;;;;;;4841301;29;20637;-77
2024/03/02 08:15:29;;;;;;;19.10;17.50;;;6.90;99.90;;;;;;4839891;29;20269;-78
2024/03/02 08:17:56;;;;;;;18.93;17.53;;;7.30;99.90;;;;;;4839843;29;20655;-78
2024/03/02 08:20:24;;;;;;;19.33;17.80;;;7.70;99.90;;;;;;4841305;29;20203;-78
2024/03/02 08:22:51;;;;;;;20.23;18.73;;;8.10;99.90;;;;;;4841346;29;20654;-78
2024/03/02 08:25:18;;;;;;;15.17;13.57;;;8.50;99.90;;;;;;4839616;29;20605;-78
2024/03/02 08:27:45;;;;;;;18.17;16.37;;;8.80;99.90;;;;;;4844137;29;20218;-77
2024/03/02 08:30:13;;;;;;;13.17;11.87;;;9.10;99.90;;;;;;4841344;29;20207;-79
2024/03/02 08:32:40;;;;;;;16.03;14.80;;;9.40;99.90;;;;;;4841490;29;20230;-78
2024/03/02 08:35:08;;;;;;;17.00;15.60;;;9.60;99.90;;;;;;4839882;29;20565;-79
2024/03/02 08:37:38;;;;;;;18.37;16.97;;;9.70;99.90;;;;;;4840525;29;20259;-79
2024/03/02 08:40:07;;;;;;;16.93;15.63;;;10.10;99.90;;;;;;4840080;29;20211;-79
2024/03/02 08:42:34;;;;;;;17.03;15.73;;;10.40;99.90;;;;;;4841534;29;20208;-79
2024/03/02 08:45:01;;;;;;;17.23;15.93;;;10.60;99.90;;;;;;4839750;29;20259;-79
2024/03/02 08:47:28;;;;;;;17.80;16.40;;;10.80;99.90;;;;;;4840004;29;20212;-79
2024/03/02 08:49:55;;;;;;;16.93;15.50;;;10.90;99.90;;;;;;4839680;29;20232;-79
2024/03/02 08:52:22;;;;;;;16.73;15.43;;;11.10;99.90;;;;;;4839756;29;20243;-79
2024/03/02 08:54:50;;;;;;;16.77;15.57;;;11.00;99.90;;;;;;4841470;29;20252;-80
2024/03/02 08:57:17;;;;;;;15.83;14.73;;;11.10;99.90;;;;;;4840460;29;20652;-79
2024/03/02 08:59:44;;;;;;;16.27;15.07;;;11.10;99.90;;;;;;4839601;29;20209;-78
2024/03/02 09:02:11;;;;;;;15.70;14.60;;;11.20;99.90;;;;;;4839754;29;20217;-78
2024/03/02 09:04:38;;;;;;;16.57;15.37;;;11.30;99.90;;;;;;4839503;29;20710;-80
2024/03/02 09:07:05;;;;;;;14.90;13.70;;;11.50;99.90;;;;;;4839895;29;20685;-79
2024/03/02 09:09:32;;;;;;;12.60;11.50;;;11.80;99.90;;;;;;4839941;29;20294;-79
2024/03/02 09:12:01;;;;;;;9.70;8.70;;;12.10;99.90;;;;;;4839828;29;20274;-79
2024/03/02 09:14:28;;;;;;;12.07;10.83;;;12.60;99.90;;;;;;4839734;29;20729;-76
2024/03/02 09:16:54;;;;;;;9.73;8.33;;;12.80;99.90;;;;;;4839772;29;20246;-79
2024/03/02 09:19:21;;;;;;;15.00;13.80;;;13.10;99.90;;;;;;4839405;29;20294;-77
2024/03/02 09:21:48;;;;;;;11.67;10.47;;;13.40;99.90;;;;;;4841146;29;20230;-78
2024/03/02 09:24:15;;;;;;;14.80;13.70;;;13.60;99.90;;;;;;4838526;29;20235;-78
2024/03/02 09:26:42;;;;;;;10.83;9.83;;;13.90;99.90;;;;;;4840584;29;20196;-78
2024/03/02 09:29:11;;;;;;;10.33;9.53;;;14.20;99.90;;;;;;4838837;29;20682;-79
2024/03/02 09:31:41;;;;;;;8.70;7.80;;;14.40;99.90;;;;;;4841328;29;20241;-79
2024/03/02 09:34:08;;;;;;;9.37;8.37;;;14.40;99.90;;;;;;4839294;29;20309;-78
2024/03/02 09:36:34;;;;;;;8.60;7.80;;;14.20;99.90;;;;;;4839500;29;20295;-79
2024/03/02 09:39:03;;;;;;;10.00;9.00;;;14.50;99.90;;;;;;4839288;29;20206;-79
2024/03/02 09:41:30;;;;;;;9.30;8.50;;;14.60;99.90;;;;;;4842190;29;20205;-79
2024/03/02 09:43:57;;;;;;;8.33;7.63;;;14.80;99.90;;;;;;4843687;29;20230;-79
2024/03/02 09:46:25;;;;;;;9.00;8.10;;;15.00;99.90;;;;;;4840826;29;20332;-79
2024/03/02 09:48:52;;;;;;;8.37;6.60;;;15.00;99.90;;;;;;4840264;29;20205;-79
2024/03/02 09:51:20;;;;;;;7.57;6.43;;;14.80;99.90;;;;;;4841059;29;20232;-77
2024/03/02 09:53:49;;;;;;;7.10;6.40;;;14.70;99.90;;;;;;4843210;29;20248;-83
2024/03/02 09:56:18;;;;;;;6.40;5.80;;;14.80;99.90;;;;;;4843342;29;20213;-84
2024/03/02 09:58:45;;;;;;;6.73;6.13;;;14.90;99.90;;;;;;4844078;29;20294;-82
2024/03/02 10:01:12;;;;;;;6.97;6.13;;;15.00;99.90;;;;;;4851668;29;20213;-83
2024/03/02 10:03:40;;;;;;;6.33;5.70;;;15.10;99.90;;;;;;4844293;29;20336;-80
2024/03/02 10:06:23;;;;;;;7.37;6.10;;;15.10;99.90;;;;;;4843353;29;20270;-77
2024/03/02 10:08:50;;;;;;;6.83;6.03;;;15.10;99.90;;;;;;4841796;29;20197;-76
2024/03/02 10:11:28;;;;;;;7.80;7.00;;;15.10;99.90;;;;;;4844850;29;20235;-79
2024/03/02 10:14:10;;;;;;;8.73;6.97;;;14.90;99.90;;;;;;4843186;29;20324;-80
2024/03/02 10:16:37;;;;;;;7.77;7.00;;;14.80;99.90;;;;;;4842341;29;20221;-77
2024/03/02 10:19:22;;;;;;;7.87;6.53;;;14.70;99.90;;;;;;4843834;29;20695;-81
2024/03/02 10:21:50;;;;;;;10.27;9.43;;;14.60;99.90;;;;;;4841266;29;20209;-78
2024/03/02 10:24:17;;;;;;;13.77;12.77;;;14.40;99.90;;;;;;4843406;29;20250;-79
2024/03/02 10:26:44;;;;;;;12.73;11.80;;;14.40;99.90;;;;;;4842626;29;20217;-79
2024/03/02 10:29:11;;;;;;;14.60;13.50;;;14.50;99.90;;;;;;4842079;29;20265;-79
2024/03/02 10:31:39;;;;;;;13.53;12.53;;;14.40;99.90;;;;;;4841773;29;20267;-80
2024/03/02 10:34:06;;;;;;;13.20;12.30;;;14.30;99.90;;;;;;4841982;29;20235;-79
2024/03/02 10:36:35;;;;;;;12.73;11.73;;;14.20;99.90;;;;;;4839856;29;20228;-79
2024/03/02 10:39:03;;;;;;;8.40;6.53;;;14.00;99.90;;;;;;4844318;29;20229;-78
2024/03/02 10:41:33;;;;;;;10.43;7.60;;;13.80;99.90;;;;;;4842971;29;20242;-78
2024/03/02 10:44:02;;;;;;;7.83;7.03;;;13.60;99.90;;;;;;4842067;29;20324;-78
2024/03/02 10:46:30;;;;;;;11.03;8.27;;;13.50;99.90;;;;;;4839958;29;20268;-78
2024/03/02 10:48:58;;;;;;;8.40;7.50;;;13.50;99.90;;;;;;4841405;29;20606;-78
2024/03/02 10:51:25;;;;;;;7.73;6.70;;;13.40;99.90;;;;;;4840956;29;20212;-78
2024/03/02 10:53:53;;;;;;;17.57;16.17;;;13.40;99.90;;;;;;4841423;29;20656;-78
2024/03/02 10:56:28;;;;;;;14.30;13.30;;;13.40;99.90;;;;;;4841730;29;20209;-78
2024/03/02 10:59:03;;;;;;;13.90;12.80;;;13.40;99.90;;;;;;4842748;29;20562;-78
2024/03/02 11:01:33;;;;;;;13.67;12.47;;;13.50;99.90;;;;;;4843237;29;20207;-79
2024/03/02 11:04:00;;;;;;;13.07;12.17;;;13.60;99.90;;;;;;4836804;29;20239;-81
2024/03/02 11:06:32;;;;;;;12.63;11.73;;;13.70;99.90;;;;;;4842325;29;20656;-78
2024/03/02 11:09:05;;;;;;;12.80;11.90;;;13.70;99.90;;;;;;4838957;29;20263;-79
2024/03/02 11:11:36;;;;;;;12.57;11.67;;;13.70;99.90;;;;;;4839682;29;20650;-77
2024/03/02 11:14:08;;;;;;;11.90;11.10;;;13.70;99.90;;;;;;4841157;29;20300;-78
2024/03/02 11:16:36;;;;;;;12.30;11.40;;;13.70;99.90;;;;;;4837174;29;20215;-77
2024/03/02 11:19:09;;;;;;;11.27;10.57;;;13.70;99.90;;;;;;4842487;29;20694;-78
2024/03/02 11:21:36;;;;;;;10.90;10.20;;;13.80;99.90;;;;;;4842784;29;20222;-77
2024/03/02 11:24:35;;;;;;;10.97;10.20;;;13.90;99.90;;;;;;4841075;29;20218;-79
2024/03/02 11:27:03;;;;;;;11.73;10.90;;;14.00;99.90;;;;;;4840767;29;20212;-78
2024/03/02 11:29:46;;;;;;;12.23;11.40;;;14.00;99.90;;;;;;4840728;29;20831;-78
2024/03/02 11:32:18;;;;;;;11.80;11.00;;;14.10;99.90;;;;;;4841897;29;20218;-79
2024/03/02 11:34:47;;;;;;;12.20;11.30;;;14.10;99.90;;;;;;4841740;29;20227;-79
2024/03/02 11:37:15;;;;;;;11.83;10.93;;;14.00;99.90;;;;;;4840810;29;20201;-78
2024/03/02 11:39:45;;;;;;;11.80;11.00;;;14.10;99.90;;;;;;4838737;29;20478;-78
2024/03/02 11:42:13;;;;;;;7.03;6.32;;;14.10;99.90;;;;;;4840872;29;20441;-78
2024/03/02 11:44:42;;;;;;;6.10;5.60;;;14.10;99.90;;;;;;4840285;29;20234;-78
2024/03/02 11:47:11;;;;;;;11.80;11.00;;;14.10;99.90;;;;;;4842005;29;20622;-78
2024/03/02 11:49:39;;;;;;;12.47;11.57;;;14.20;99.90;;;;;;4838438;29;20618;-78
2024/03/02 11:52:07;;;;;;;11.80;11.00;;;14.00;99.90;;;;;;4841746;29;20289;-78
2024/03/02 11:54:35;;;;;;;10.93;10.23;;;13.90;99.90;;;;;;4838475;29;20247;-78
2024/03/02 11:57:04;;;;;;;11.13;10.43;;;13.90;99.90;;;;;;4837676;29;20236;-78
2024/03/02 11:59:31;;;;;;;10.67;9.97;;;13.90;99.90;;;;;;4837907;29;20671;-78
2024/03/02 12:01:59;;;;;;;10.70;10.10;;;14.00;99.90;;;;;;4840244;29;20231;-78
2024/03/02 12:04:26;;;;;;;10.43;9.83;;;14.00;99.90;;;;;;4839528;29;20285;-77
2024/03/02 12:06:56;;;;;;;10.80;10.10;;;14.10;99.90;;;;;;4841461;29;20574;-76
2024/03/02 12:09:23;;;;;;;10.10;9.50;;;14.10;99.90;;;;;;4833906;29;20205;-77
2024/03/02 12:12:04;;;;;;;9.50;8.93;;;14.20;99.90;;;;;;4839161;29;20230;-78
2024/03/02 12:14:32;;;;;;;9.93;9.33;;;14.40;99.90;;;;;;4838089;29;20604;-78
2024/03/02 12:16:59;;;;;;;9.83;9.23;;;14.40;99.90;;;;;;4841851;29;20197;-78
2024/03/02 12:19:27;;;;;;;9.60;9.00;;;14.40;99.90;;;;;;4841983;29;20903;-78
2024/03/02 12:21:54;;;;;;;10.30;9.70;;;14.40;99.90;;;;;;4840837;29;20204;-79
2024/03/02 12:24:22;;;;;;;10.53;9.83;;;14.50;99.90;;;;;;4842092;29;20283;-78
2024/03/02 12:26:50;;;;;;;9.87;9.17;;;14.60;99.90;;;;;;4839958;29;20229;-78
2024/03/02 12:29:20;;;;;;;10.00;9.40;;;14.60;99.90;;;;;;4841439;29;20261;-77
2024/03/02 12:31:49;;;;;;;9.80;9.17;;;14.50;99.90;;;;;;4839958;29;20320;-78
2024/03/02 12:34:18;;;;;;;9.73;9.13;;;14.50;99.90;;;;;;4841533;29;20276;-76
2024/03/02 12:36:49;;;;;;;10.03;9.33;;;14.60;99.90;;;;;;4840103;29;20582;-79
2024/03/02 12:39:17;;;;;;;9.87;9.20;;;14.80;99.90;;;;;;4841032;29;20254;-78
2024/03/02 12:41:44;;;;;;;9.20;8.60;;;14.80;99.90;;;;;;4839537;29;20601;-77